Time;durP1;ratioP1;P1;durP2;ratioP2;P2;SDS_P1;SDS_P2;PMS_P1;PMS_P2;Temp;Humidity;BMP_temperature;BMP_pressure;BME280_temperature;BME280_humidity;BME280_pressure;Samples;Min_cycle;Max_cycle;Signal;HPM_P1;HPM_P2
2022/10/23 00:00:36;;;;;;;12.10;8.75;;;9.40;99.90;;;;;;5037336;28;20040;-59
2022/10/23 00:03:02;;;;;;;10.95;9.45;;;9.30;99.90;;;;;;5038898;28;20025;-59
2022/10/23 00:05:28;;;;;;;11.20;10.10;;;9.30;99.90;;;;;;5036208;28;20030;-59
2022/10/23 00:07:56;;;;;;;15.75;10.13;;;9.30;99.90;;;;;;5037505;28;20128;-60
2022/10/23 00:10:24;;;;;;;14.20;11.15;;;9.20;99.90;;;;;;5043405;28;20577;-59
2022/10/23 00:12:50;;;;;;;18.02;12.55;;;9.30;99.90;;;;;;5038127;28;20017;-60
2022/10/23 00:15:18;;;;;;;14.27;12.77;;;9.30;99.90;;;;;;5038657;28;20033;-60
2022/10/23 00:17:44;;;;;;;18.63;11.88;;;9.30;99.90;;;;;;5038209;28;20155;-60
2022/10/23 00:20:11;;;;;;;13.88;11.93;;;9.40;99.90;;;;;;5037476;28;20376;-59
2022/10/23 00:22:37;;;;;;;11.90;10.80;;;9.40;99.90;;;;;;5022560;28;20036;-60
2022/10/23 00:25:05;;;;;;;17.25;12.32;;;9.40;99.90;;;;;;5026940;28;20033;-60
2022/10/23 00:27:31;;;;;;;16.40;11.90;;;9.40;99.90;;;;;;5040912;28;20124;-60
2022/10/23 00:29:56;;;;;;;13.25;10.43;;;9.50;99.90;;;;;;5021916;28;20384;-60
2022/10/23 00:32:22;;;;;;;17.48;11.93;;;9.50;99.90;;;;;;5037905;28;20021;-60
2022/10/23 00:34:48;;;;;;;12.52;11.20;;;9.50;99.90;;;;;;5020385;28;20465;-60
2022/10/23 00:37:13;;;;;;;17.38;12.05;;;9.40;99.90;;;;;;5041289;28;20497;-60
2022/10/23 00:39:39;;;;;;;12.68;11.38;;;9.40;99.90;;;;;;5021355;28;20039;-59
2022/10/23 00:42:05;;;;;;;19.20;11.05;;;9.40;99.90;;;;;;5005852;28;20025;-59
2022/10/23 00:44:30;;;;;;;16.48;10.35;;;9.40;99.90;;;;;;5039173;28;20532;-60
2022/10/23 00:46:57;;;;;;;12.55;9.15;;;9.30;99.90;;;;;;5022238;28;20030;-60
2022/10/23 00:49:24;;;;;;;22.75;8.70;;;9.20;99.90;;;;;;5037899;28;20570;-60
2022/10/23 00:52:03;;;;;;;11.75;9.45;;;9.20;99.90;;;;;;5006761;28;20029;-60
2022/10/23 00:54:33;;;;;;;15.27;9.23;;;9.10;99.90;;;;;;5040476;28;20028;-60
2022/10/23 00:57:02;;;;;;;10.23;9.18;;;9.10;99.90;;;;;;5035116;28;20079;-60
2022/10/23 00:59:28;;;;;;;10.20;9.30;;;9.10;99.90;;;;;;5041402;28;20053;-59
2022/10/23 01:01:54;;;;;;;15.90;9.52;;;9.10;99.90;;;;;;5037834;28;20524;-59
2022/10/23 01:04:21;;;;;;;12.38;9.57;;;9.10;99.90;;;;;;5039539;28;20065;-60
2022/10/23 01:06:55;;;;;;;14.98;10.02;;;9.10;99.90;;;;;;5037992;28;20030;-59
2022/10/23 01:09:25;;;;;;;17.35;10.13;;;9.10;99.90;;;;;;5038664;28;20033;-59
2022/10/23 01:12:04;;;;;;;10.50;9.45;;;9.10;99.90;;;;;;5036194;28;20072;-60
2022/10/23 01:14:58;;;;;;;11.20;10.10;;;9.10;99.90;;;;;;5039214;28;20483;-60
2022/10/23 01:17:51;;;;;;;10.43;9.45;;;9.10;99.90;;;;;;5040470;28;20040;-58
2022/10/23 01:20:23;;;;;;;12.02;9.48;;;9.10;99.90;;;;;;5038768;28;20033;-59
2022/10/23 01:23:07;;;;;;;12.45;10.68;;;9.10;99.90;;;;;;5039655;28;20478;-60
2022/10/23 01:25:52;;;;;;;11.48;10.48;;;9.10;99.90;;;;;;5034592;28;20507;-59
2022/10/23 01:28:28;;;;;;;18.33;10.88;;;9.10;99.90;;;;;;5034050;28;20485;-59
2022/10/23 01:30:57;;;;;;;10.82;9.73;;;9.10;99.90;;;;;;5041404;28;20055;-59
2022/10/23 01:33:26;;;;;;;11.10;10.00;;;9.10;99.90;;;;;;5039968;28;20087;-59
2022/10/23 01:36:04;;;;;;;11.07;8.70;;;9.10;99.90;;;;;;5038342;28;20556;-59
2022/10/23 01:38:45;;;;;;;10.40;9.23;;;9.10;99.90;;;;;;5037831;28;20523;-60
2022/10/23 01:41:19;;;;;;;10.57;9.67;;;9.10;99.90;;;;;;5034837;28;20029;-60
2022/10/23 01:43:51;;;;;;;11.05;9.77;;;9.10;99.90;;;;;;5036539;28;20264;-60
2022/10/23 01:46:17;;;;;;;10.68;9.57;;;9.10;99.90;;;;;;5033171;28;20764;-58
2022/10/23 01:48:50;;;;;;;12.55;9.07;;;9.00;99.90;;;;;;5037407;28;20037;-60
2022/10/23 01:51:18;;;;;;;11.23;10.13;;;9.00;99.90;;;;;;5035612;28;20033;-60
2022/10/23 01:53:46;;;;;;;9.23;8.35;;;9.00;99.90;;;;;;5037269;28;20037;-60
2022/10/23 01:56:17;;;;;;;8.73;7.93;;;9.00;99.90;;;;;;5036968;28;20065;-59
2022/10/23 01:58:46;;;;;;;16.60;9.45;;;9.00;99.90;;;;;;5036299;28;20025;-59
2022/10/23 02:01:14;;;;;;;9.65;8.77;;;8.90;99.90;;;;;;5040810;28;20021;-59
2022/10/23 02:03:42;;;;;;;10.13;9.20;;;8.90;99.90;;;;;;5037300;28;20057;-59
2022/10/23 02:06:08;;;;;;;13.00;8.55;;;8.90;99.90;;;;;;5040329;28;20074;-61
2022/10/23 02:08:34;;;;;;;11.00;8.80;;;8.90;99.90;;;;;;5021138;28;20021;-60
2022/10/23 02:11:07;;;;;;;11.25;8.95;;;8.90;99.90;;;;;;5037830;28;20493;-59
2022/10/23 02:13:37;;;;;;;9.85;9.00;;;8.90;99.90;;;;;;5034797;28;20500;-59
2022/10/23 02:16:14;;;;;;;10.18;9.18;;;8.80;99.90;;;;;;5035916;28;20029;-59
2022/10/23 02:18:51;;;;;;;9.27;8.48;;;8.80;99.90;;;;;;5037996;28;20028;-59
2022/10/23 02:21:30;;;;;;;14.30;8.32;;;8.80;99.90;;;;;;5035842;28;20112;-60
2022/10/23 02:24:08;;;;;;;9.15;8.35;;;8.90;99.90;;;;;;5035903;28;20025;-60
2022/10/23 02:26:57;;;;;;;9.50;8.60;;;8.80;99.90;;;;;;5039499;28;20106;-60
2022/10/23 02:29:23;;;;;;;9.07;8.18;;;8.80;99.90;;;;;;5038244;28;20060;-59
2022/10/23 02:31:49;;;;;;;8.70;8.00;;;8.80;99.90;;;;;;5036801;28;20481;-60
2022/10/23 02:34:14;;;;;;;8.35;7.70;;;8.80;99.90;;;;;;5036380;28;20034;-60
2022/10/23 02:36:40;;;;;;;9.45;8.52;;;8.80;99.90;;;;;;5037833;28;20120;-59
2022/10/23 02:39:06;;;;;;;11.68;8.93;;;8.70;99.90;;;;;;5035526;28;20029;-59
2022/10/23 02:41:37;;;;;;;9.73;8.73;;;8.80;99.90;;;;;;5039342;28;20657;-60
2022/10/23 02:44:07;;;;;;;9.48;8.57;;;8.70;99.90;;;;;;5036233;28;20040;-60
2022/10/23 02:46:36;;;;;;;10.10;8.77;;;8.70;99.90;;;;;;5036472;28;20068;-58
2022/10/23 02:49:14;;;;;;;9.70;8.65;;;8.70;99.90;;;;;;5038194;28;20033;-60
2022/10/23 02:51:46;;;;;;;17.45;11.75;;;8.70;99.90;;;;;;5037568;28;20029;-61
2022/10/23 02:54:36;;;;;;;13.18;11.88;;;8.80;99.90;;;;;;5041876;28;20120;-60
2022/10/23 02:57:20;;;;;;;12.73;11.52;;;8.80;99.90;;;;;;5036542;28;20029;-60
2022/10/23 02:59:57;;;;;;;14.80;12.25;;;8.80;99.90;;;;;;5038050;28;20108;-59
2022/10/23 03:02:36;;;;;;;15.80;13.15;;;8.90;99.90;;;;;;5032296;28;20147;-59
2022/10/23 03:05:03;;;;;;;22.17;15.95;;;9.00;99.90;;;;;;5037040;28;20049;-60
2022/10/23 03:07:29;;;;;;;24.63;15.90;;;9.10;99.90;;;;;;5040264;28;20036;-60
2022/10/23 03:09:55;;;;;;;20.42;14.77;;;9.20;99.90;;;;;;5040130;28;20408;-59
2022/10/23 03:12:20;;;;;;;20.17;15.02;;;9.30;99.90;;;;;;5036302;28;20041;-60
2022/10/23 03:14:46;;;;;;;17.83;15.52;;;9.40;99.90;;;;;;5038601;28;20029;-60
2022/10/23 03:17:11;;;;;;;17.48;14.02;;;9.50;99.90;;;;;;5036078;28;20013;-59
2022/10/23 03:19:37;;;;;;;29.45;17.35;;;9.50;99.90;;;;;;5025862;28;20030;-60
2022/10/23 03:22:03;;;;;;;39.90;19.85;;;9.70;99.90;;;;;;5042347;28;20048;-60
2022/10/23 03:24:28;;;;;;;35.30;17.58;;;9.80;99.90;;;;;;5038482;28;20029;-59
2022/10/23 03:26:54;;;;;;;25.20;16.27;;;9.90;99.90;;;;;;5025999;28;20025;-60
2022/10/23 03:29:20;;;;;;;17.65;13.30;;;9.90;99.90;;;;;;5041766;28;20087;-59
2022/10/23 03:31:45;;;;;;;18.42;12.60;;;10.00;99.90;;;;;;5041611;28;20030;-58
2022/10/23 03:34:12;;;;;;;15.10;13.18;;;10.00;99.90;;;;;;5036627;28;20456;-59
2022/10/23 03:36:38;;;;;;;14.13;10.77;;;10.00;99.90;;;;;;5039696;28;20086;-59
2022/10/23 03:39:04;;;;;;;11.65;10.30;;;10.00;99.90;;;;;;5041978;28;20033;-59
2022/10/23 03:41:30;;;;;;;11.32;10.15;;;10.00;99.90;;;;;;5039776;28;20288;-59
2022/10/23 03:43:56;;;;;;;9.82;8.82;;;10.00;99.90;;;;;;5037111;28;20502;-60
2022/10/23 03:46:22;;;;;;;10.95;8.68;;;10.00;99.90;;;;;;5040594;28;20092;-58
2022/10/23 03:48:48;;;;;;;11.35;9.75;;;10.00;99.90;;;;;;5042480;28;20064;-59
2022/10/23 03:51:13;;;;;;;18.17;10.90;;;10.00;99.90;;;;;;5035294;28;20049;-59
2022/10/23 03:53:39;;;;;;;21.50;14.57;;;10.00;99.90;;;;;;5045224;28;20486;-60
2022/10/23 03:56:05;;;;;;;23.40;14.48;;;10.10;99.90;;;;;;5038204;28;20026;-59
2022/10/23 03:58:30;;;;;;;27.52;16.42;;;10.10;99.90;;;;;;5038988;28;20092;-61
2022/10/23 04:00:56;;;;;;;29.77;15.82;;;10.20;99.90;;;;;;5036445;28;20431;-59
2022/10/23 04:03:22;;;;;;;19.33;14.00;;;10.20;99.90;;;;;;5035642;28;20367;-59
2022/10/23 04:05:48;;;;;;;30.40;16.48;;;10.40;99.90;;;;;;5040143;28;20024;-59
2022/10/23 04:08:13;;;;;;;20.95;13.57;;;10.40;99.90;;;;;;5040120;28;20196;-60
2022/10/23 04:10:39;;;;;;;17.45;11.05;;;10.40;99.90;;;;;;5042000;28;20554;-61
2022/10/23 04:13:04;;;;;;;13.95;11.20;;;10.40;99.90;;;;;;5039832;28;20052;-60
2022/10/23 04:15:30;;;;;;;26.02;14.45;;;10.40;99.90;;;;;;5036920;28;20557;-60
2022/10/23 04:17:56;;;;;;;22.58;14.38;;;10.40;99.90;;;;;;5037796;28;20025;-59
2022/10/23 04:20:21;;;;;;;14.70;10.98;;;10.50;99.90;;;;;;5038033;28;20374;-59
2022/10/23 04:22:47;;;;;;;24.05;15.65;;;10.50;99.90;;;;;;5040542;28;20064;-60
2022/10/23 04:25:15;;;;;;;22.63;14.90;;;10.50;99.90;;;;;;5039313;28;20045;-60
2022/10/23 04:27:41;;;;;;;24.27;16.90;;;10.50;99.90;;;;;;5036735;28;20385;-59
2022/10/23 04:30:07;;;;;;;26.33;17.20;;;10.50;99.90;;;;;;5035688;28;20036;-60
2022/10/23 04:32:33;;;;;;;26.02;17.17;;;10.60;99.90;;;;;;5036548;28;20160;-60
2022/10/23 04:34:59;;;;;;;29.45;20.08;;;10.50;99.90;;;;;;5039008;28;20438;-60
2022/10/23 04:37:25;;;;;;;26.90;23.98;;;10.60;99.90;;;;;;5039479;28;20104;-58
2022/10/23 04:39:50;;;;;;;22.05;19.77;;;10.50;99.90;;;;;;5021732;28;20177;-59
2022/10/23 04:42:16;;;;;;;19.70;16.48;;;10.50;99.90;;;;;;5037128;28;20025;-60
2022/10/23 04:44:42;;;;;;;17.15;13.95;;;10.50;99.90;;;;;;4986519;28;20033;-60
2022/10/23 04:47:07;;;;;;;18.42;14.10;;;10.40;99.90;;;;;;5020964;28;20036;-60
2022/10/23 04:49:33;;;;;;;16.75;14.52;;;10.50;99.90;;;;;;5039058;28;20028;-60
2022/10/23 04:51:58;;;;;;;29.33;18.20;;;10.40;99.90;;;;;;5036680;28;20366;-60
2022/10/23 04:54:24;;;;;;;53.03;22.75;;;10.50;99.90;;;;;;5037931;28;20106;-59
2022/10/23 04:56:50;;;;;;;53.72;24.95;;;10.60;99.90;;;;;;5034539;28;20021;-59
2022/10/23 04:59:15;;;;;;;74.18;28.05;;;10.70;99.90;;;;;;5040583;28;20052;-60
2022/10/23 05:01:41;;;;;;;69.60;28.15;;;10.80;99.90;;;;;;5037496;28;20036;-60
2022/10/23 05:04:07;;;;;;;84.93;29.88;;;10.90;99.90;;;;;;5034959;28;20044;-61
2022/10/23 05:06:32;;;;;;;84.47;31.25;;;11.00;99.90;;;;;;5020372;28;20029;-60
2022/10/23 05:08:58;;;;;;;86.07;31.83;;;11.10;99.90;;;;;;5036751;28;20034;-60
2022/10/23 05:11:23;;;;;;;75.07;31.27;;;11.10;99.90;;;;;;5038972;28;20029;-60
2022/10/23 05:13:49;;;;;;;82.65;31.17;;;11.20;99.90;;;;;;5034261;28;20040;-59
2022/10/23 05:16:41;;;;;;;89.18;31.42;;;11.20;99.90;;;;;;5037818;28;20036;-60
2022/10/23 05:19:11;;;;;;;71.00;30.35;;;11.20;99.90;;;;;;5039062;28;20029;-61
2022/10/23 05:21:38;;;;;;;85.50;30.92;;;11.20;99.90;;;;;;5034347;28;20040;-59
2022/10/23 05:24:04;;;;;;;75.10;29.83;;;11.20;99.90;;;;;;5035906;28;20127;-59
2022/10/23 05:26:31;;;;;;;76.75;28.80;;;11.20;99.90;;;;;;5040330;28;20017;-59
2022/10/23 05:28:56;;;;;;;77.03;30.27;;;11.20;99.90;;;;;;5036168;28;20029;-60
2022/10/23 05:31:24;;;;;;;63.40;27.38;;;11.30;99.90;;;;;;5039159;28;20025;-60
2022/10/23 05:33:51;;;;;;;66.93;27.08;;;11.30;99.90;;;;;;5039032;28;20249;-59
2022/10/23 05:36:17;;;;;;;59.53;24.92;;;11.30;99.90;;;;;;5040768;28;20025;-60
2022/10/23 05:38:44;;;;;;;65.95;26.52;;;11.20;99.90;;;;;;5027237;28;20032;-59
2022/10/23 05:41:10;;;;;;;61.83;25.48;;;11.30;99.90;;;;;;5019176;28;20044;-59
2022/10/23 05:43:36;;;;;;;51.58;23.50;;;11.30;99.90;;;;;;5034451;28;20029;-60
2022/10/23 05:46:05;;;;;;;49.47;23.38;;;11.30;99.90;;;;;;5035530;28;20159;-60
2022/10/23 05:48:32;;;;;;;45.22;22.83;;;11.30;99.90;;;;;;5038410;28;20041;-59
2022/10/23 05:51:10;;;;;;;51.15;24.13;;;11.30;99.90;;;;;;5017849;28;20677;-60
2022/10/23 05:53:36;;;;;;;46.65;22.42;;;11.30;99.90;;;;;;5017515;28;20048;-59
2022/10/23 05:56:06;;;;;;;46.05;24.38;;;11.30;99.90;;;;;;5007514;28;20648;-59
2022/10/23 05:58:32;;;;;;;44.45;23.70;;;11.30;99.90;;;;;;5040532;28;20028;-60
2022/10/23 06:00:58;;;;;;;46.78;23.83;;;11.30;99.90;;;;;;5037547;28;20028;-60
2022/10/23 06:03:24;;;;;;;45.63;22.23;;;11.30;99.90;;;;;;5036780;28;20048;-60
2022/10/23 06:05:50;;;;;;;38.60;21.52;;;11.30;99.90;;;;;;5036216;28;20022;-60
2022/10/23 06:08:16;;;;;;;43.80;22.10;;;11.40;99.90;;;;;;5037960;28;20033;-60
2022/10/23 06:10:42;;;;;;;36.88;22.00;;;11.40;99.90;;;;;;5041755;28;20029;-59
2022/10/23 06:13:08;;;;;;;35.33;21.33;;;11.40;99.90;;;;;;5037867;28;20030;-61
2022/10/23 06:15:34;;;;;;;36.30;20.75;;;11.40;99.90;;;;;;5039960;28;20023;-60
2022/10/23 06:18:03;;;;;;;30.27;19.70;;;11.40;99.90;;;;;;5038373;28;20026;-59
2022/10/23 06:20:29;;;;;;;32.75;21.35;;;11.50;99.90;;;;;;5034261;28;20497;-58
2022/10/23 06:22:55;;;;;;;27.75;19.65;;;11.50;99.90;;;;;;5038208;28;20111;-60
2022/10/23 06:25:20;;;;;;;29.15;20.05;;;11.60;99.90;;;;;;5039521;28;20034;-60
2022/10/23 06:27:46;;;;;;;32.08;20.23;;;11.60;99.90;;;;;;5039596;28;20520;-59
2022/10/23 06:30:12;;;;;;;30.85;20.02;;;11.60;99.90;;;;;;5041188;28;20777;-59
2022/10/23 06:32:38;;;;;;;30.50;19.35;;;11.60;99.90;;;;;;5036588;28;20496;-60
2022/10/23 06:35:04;;;;;;;30.33;19.35;;;11.70;99.90;;;;;;5042455;28;20022;-59
2022/10/23 06:37:33;;;;;;;24.50;17.77;;;11.70;99.90;;;;;;5037290;28;20498;-60
2022/10/23 06:39:58;;;;;;;24.70;19.10;;;11.70;99.90;;;;;;5041440;28;20109;-60
2022/10/23 06:42:24;;;;;;;26.23;17.45;;;11.70;99.90;;;;;;5036543;28;20501;-59
2022/10/23 06:44:49;;;;;;;26.98;19.38;;;11.80;99.90;;;;;;5033520;28;20052;-59
2022/10/23 06:47:15;;;;;;;21.52;17.85;;;11.80;99.90;;;;;;5038482;28;20112;-61
2022/10/23 06:49:41;;;;;;;22.80;18.23;;;11.90;99.90;;;;;;5038860;28;20528;-60
2022/10/23 06:52:07;;;;;;;26.92;18.48;;;11.80;99.90;;;;;;5049217;28;20032;-59
2022/10/23 06:54:32;;;;;;;23.50;18.33;;;11.90;99.90;;;;;;5039973;28;20032;-60
2022/10/23 06:56:58;;;;;;;24.50;17.65;;;11.90;99.90;;;;;;5042438;28;20394;-61
2022/10/23 06:59:24;;;;;;;19.48;17.00;;;11.90;99.90;;;;;;5043127;28;20033;-62
2022/10/23 07:01:49;;;;;;;21.70;17.15;;;12.00;99.90;;;;;;5034385;28;20033;-59
2022/10/23 07:04:15;;;;;;;25.63;18.50;;;12.00;99.90;;;;;;5042732;28;20045;-60
2022/10/23 07:06:41;;;;;;;18.40;16.52;;;12.00;99.90;;;;;;5044918;28;20119;-59
2022/10/23 07:09:07;;;;;;;20.52;17.02;;;12.00;99.90;;;;;;5051769;28;20041;-59
2022/10/23 07:11:33;;;;;;;26.83;17.33;;;12.10;99.90;;;;;;5040196;28;20739;-60
2022/10/23 07:13:59;;;;;;;24.40;16.60;;;12.10;99.90;;;;;;5039738;28;20030;-59
2022/10/23 07:16:25;;;;;;;18.88;16.48;;;12.20;99.90;;;;;;5043707;28;20032;-59
2022/10/23 07:18:58;;;;;;;19.20;16.52;;;12.20;99.90;;;;;;5038368;28;20088;-59
2022/10/23 07:21:34;;;;;;;21.15;15.20;;;12.20;99.90;;;;;;5042537;28;20074;-59
2022/10/23 07:24:01;;;;;;;18.17;15.35;;;12.30;99.90;;;;;;5040173;28;20025;-60
2022/10/23 07:26:27;;;;;;;16.67;15.07;;;12.30;99.90;;;;;;5027156;28;20374;-59
2022/10/23 07:28:55;;;;;;;17.35;15.02;;;12.30;99.90;;;;;;5041733;28;20060;-59
2022/10/23 07:31:22;;;;;;;15.82;14.23;;;12.40;99.90;;;;;;5039189;28;20039;-58
2022/10/23 07:33:48;;;;;;;17.60;15.57;;;12.40;99.90;;;;;;5042755;28;20033;-57
2022/10/23 07:36:14;;;;;;;17.30;14.98;;;12.40;99.90;;;;;;5034521;28;20617;-59
2022/10/23 07:38:39;;;;;;;17.67;15.30;;;12.50;99.90;;;;;;5040829;28;20035;-59
2022/10/23 07:41:05;;;;;;;17.58;15.43;;;12.50;99.90;;;;;;5044276;28;20059;-60
2022/10/23 07:43:32;;;;;;;15.70;14.27;;;12.50;99.90;;;;;;5035990;28;20052;-59
2022/10/23 07:45:58;;;;;;;17.08;15.02;;;12.50;99.90;;;;;;5039715;28;20037;-59
2022/10/23 07:48:26;;;;;;;14.73;13.30;;;12.60;99.90;;;;;;5036137;28;20524;-59
2022/10/23 07:50:51;;;;;;;14.35;12.95;;;12.60;99.90;;;;;;5036702;28;20037;-59
2022/10/23 07:53:20;;;;;;;15.00;13.68;;;12.70;99.90;;;;;;5041577;28;20034;-60
2022/10/23 07:55:59;;;;;;;12.65;11.50;;;12.80;99.90;;;;;;5038959;28;20033;-61
2022/10/23 07:58:27;;;;;;;12.32;10.90;;;12.80;99.90;;;;;;5041772;28;20036;-60
2022/10/23 08:01:01;;;;;;;12.73;11.52;;;12.90;99.90;;;;;;5040318;28;20082;-59
2022/10/23 08:03:30;;;;;;;13.15;11.95;;;12.90;99.90;;;;;;5038643;28;20025;-60
2022/10/23 08:05:56;;;;;;;11.85;10.75;;;12.90;99.90;;;;;;5040773;28;20025;-60
2022/10/23 08:08:22;;;;;;;15.48;13.20;;;13.00;99.90;;;;;;5040376;28;20485;-59
2022/10/23 08:10:50;;;;;;;12.77;11.63;;;13.10;99.90;;;;;;5042058;28;20060;-58
2022/10/23 08:13:19;;;;;;;14.73;13.48;;;13.20;99.90;;;;;;5037527;28;20111;-59
2022/10/23 08:15:45;;;;;;;13.70;12.50;;;13.30;99.90;;;;;;5040084;28;20025;-59
2022/10/23 08:18:11;;;;;;;13.75;12.60;;;13.40;99.90;;;;;;5040436;28;20028;-61
2022/10/23 08:20:41;;;;;;;13.55;12.25;;;13.40;99.90;;;;;;5038511;28;20021;-59
2022/10/23 08:23:07;;;;;;;12.75;11.73;;;13.50;99.90;;;;;;5040608;28;20029;-60
2022/10/23 08:25:34;;;;;;;13.18;12.10;;;13.60;99.90;;;;;;5041061;28;20400;-61
2022/10/23 08:28:00;;;;;;;13.43;12.15;;;13.70;99.90;;;;;;5039428;28;20029;-61
2022/10/23 08:30:26;;;;;;;13.82;12.63;;;13.60;99.90;;;;;;5037354;28;20562;-59
2022/10/23 08:32:52;;;;;;;14.88;13.52;;;13.60;99.90;;;;;;5035565;28;20025;-60
2022/10/23 08:35:18;;;;;;;14.07;12.85;;;13.60;99.90;;;;;;5043684;28;20108;-61
2022/10/23 08:37:44;;;;;;;13.82;12.65;;;13.60;99.90;;;;;;5035294;28;20037;-60
2022/10/23 08:40:23;;;;;;;14.05;12.63;;;13.50;99.90;;;;;;5035934;28;20037;-60
2022/10/23 08:43:00;;;;;;;13.07;11.90;;;13.60;99.90;;;;;;5037784;28;20049;-61
2022/10/23 08:45:51;;;;;;;13.50;12.38;;;13.50;99.90;;;;;;5036014;28;20121;-61
2022/10/23 08:48:25;;;;;;;13.45;12.27;;;13.60;99.90;;;;;;5035585;28;20033;-60
2022/10/23 08:51:11;;;;;;;12.48;11.32;;;13.60;99.90;;;;;;5042120;28;20087;-60
2022/10/23 08:53:56;;;;;;;12.55;11.45;;;13.60;99.90;;;;;;5037757;28;20035;-61
2022/10/23 08:56:27;;;;;;;9.65;8.75;;;13.60;99.90;;;;;;5041343;28;20017;-60
2022/10/23 08:58:59;;;;;;;;;;;13.70;99.90;;;;;;5038891;28;20033;-61
2022/10/23 09:01:41;;;;;;;11.23;10.30;;;13.70;99.90;;;;;;5040017;28;20351;-60
2022/10/23 09:04:16;;;;;;;10.63;9.63;;;13.90;99.90;;;;;;5039696;28;20033;-60
2022/10/23 09:06:58;;;;;;;10.02;9.23;;;14.10;99.90;;;;;;5041714;28;20493;-59
2022/10/23 09:09:54;;;;;;;10.70;9.68;;;14.20;99.90;;;;;;5040361;28;20032;-61
2022/10/23 09:12:24;;;;;;;9.30;8.48;;;14.30;99.90;;;;;;5043297;28;20025;-61
2022/10/23 09:15:27;;;;;;;9.37;7.43;;;14.40;99.90;;;;;;5039869;28;20069;-60
2022/10/23 09:17:58;;;;;;;8.00;7.30;;;14.40;99.90;;;;;;5042629;28;20183;-60
2022/10/23 09:20:31;;;;;;;9.18;8.23;;;14.60;99.90;;;;;;5043601;28;20024;-62
2022/10/23 09:22:59;;;;;;;7.55;6.93;;;14.90;99.90;;;;;;5038988;28;20034;-62
2022/10/23 09:25:33;;;;;;;7.70;6.85;;;15.10;99.90;;;;;;5039929;28;20033;-60
2022/10/23 09:28:00;;;;;;;7.32;6.68;;;15.50;99.90;;;;;;5042634;28;20032;-60
2022/10/23 09:30:28;;;;;;;7.53;6.93;;;15.50;99.90;;;;;;5036673;28;20107;-61
2022/10/23 09:32:53;;;;;;;7.18;6.60;;;15.40;99.90;;;;;;5041034;28;20080;-61
2022/10/23 09:35:24;;;;;;;7.30;6.60;;;15.10;99.90;;;;;;5040200;28;20484;-61
2022/10/23 09:37:52;;;;;;;7.38;6.78;;;15.10;99.90;;;;;;5036278;28;20112;-60
2022/10/23 09:40:21;;;;;;;7.85;7.15;;;15.20;99.90;;;;;;5040205;28;20030;-61
2022/10/23 09:42:54;;;;;;;14.07;6.50;;;15.20;99.90;;;;;;5039559;28;20041;-61
2022/10/23 09:45:28;;;;;;;7.55;6.95;;;15.30;99.90;;;;;;5037768;28;20381;-60
2022/10/23 09:48:14;;;;;;;8.90;8.07;;;15.20;99.90;;;;;;5039317;28;20037;-60
2022/10/23 09:50:51;;;;;;;7.00;6.40;;;15.10;99.90;;;;;;5037395;28;20068;-61
2022/10/23 09:53:29;;;;;;;7.72;7.13;;;15.20;99.90;;;;;;5037420;28;20684;-60
2022/10/23 09:55:57;;;;;;;9.23;8.27;;;15.10;99.90;;;;;;5038466;28;20407;-60
2022/10/23 09:58:33;;;;;;;8.43;7.40;;;15.10;99.90;;;;;;5039384;28;20087;-61
2022/10/23 10:01:00;;;;;;;7.55;6.95;;;15.20;99.90;;;;;;5036232;28;20530;-60
2022/10/23 10:03:25;;;;;;;16.83;7.40;;;15.20;99.90;;;;;;5036034;28;20033;-62
2022/10/23 10:05:59;;;;;;;12.68;7.75;;;15.20;99.90;;;;;;5033660;28;20021;-61
2022/10/23 10:08:48;;;;;;;9.02;7.22;;;15.20;99.90;;;;;;5039488;28;20029;-61
2022/10/23 10:11:24;;;;;;;7.90;7.20;;;15.10;99.90;;;;;;5035192;28;20128;-61
2022/10/23 10:14:05;;;;;;;8.70;8.00;;;15.30;99.90;;;;;;5037762;28;20029;-60
2022/10/23 10:17:04;;;;;;;11.80;7.80;;;15.30;99.90;;;;;;5040549;28;20045;-62
2022/10/23 10:19:51;;;;;;;8.20;7.50;;;15.30;99.90;;;;;;5035691;28;20021;-60
2022/10/23 10:22:22;;;;;;;9.63;7.25;;;15.50;99.90;;;;;;5034641;28;20022;-60
2022/10/23 10:24:57;;;;;;;6.22;5.63;;;15.70;99.90;;;;;;5036996;28;20028;-59
2022/10/23 10:27:56;;;;;;;7.65;6.70;;;16.00;99.90;;;;;;5034262;28;20021;-61
2022/10/23 10:30:23;;;;;;;6.15;5.50;;;16.30;99.90;;;;;;5036919;28;20064;-61
2022/10/23 10:33:05;;;;;;;9.77;5.35;;;16.30;99.90;;;;;;5035344;28;20021;-59
2022/10/23 10:35:41;;;;;;;5.15;4.65;;;16.40;99.90;;;;;;5041292;28;20060;-60
2022/10/23 10:38:25;;;;;;;5.90;5.30;;;16.40;99.90;;;;;;5037955;28;20038;-61
2022/10/23 10:41:23;;;;;;;8.13;6.20;;;16.30;99.90;;;;;;5040571;28;20042;-59
2022/10/23 10:43:52;;;;;;;6.45;5.95;;;16.20;99.90;;;;;;5035783;28;20078;-60
2022/10/23 10:46:25;;;;;;;6.07;5.53;;;16.20;99.90;;;;;;5038692;28;20033;-60
2022/10/23 10:48:59;;;;;;;6.25;5.72;;;16.20;99.90;;;;;;5031864;28;20047;-62
2022/10/23 10:51:48;;;;;;;6.15;5.65;;;16.20;99.90;;;;;;5035012;28;20028;-61
2022/10/23 10:54:19;;;;;;;11.15;5.50;;;16.20;99.90;;;;;;5034645;28;20027;-61
2022/10/23 10:56:47;;;;;;;5.72;5.22;;;16.40;99.90;;;;;;5034117;28;20124;-61
2022/10/23 10:59:27;;;;;;;7.72;5.80;;;16.50;99.90;;;;;;5040873;28;20025;-60
2022/10/23 11:02:17;;;;;;;5.77;5.27;;;16.50;99.90;;;;;;5045993;28;20040;-60
2022/10/23 11:04:45;;;;;;;5.80;5.13;;;16.50;99.90;;;;;;5042840;28;20564;-60
2022/10/23 11:07:17;;;;;;;5.30;4.88;;;16.50;99.90;;;;;;5038738;28;20509;-61
2022/10/23 11:09:44;;;;;;;5.15;4.75;;;16.40;99.90;;;;;;5040375;28;20029;-61
2022/10/23 11:12:19;;;;;;;6.65;4.93;;;16.50;99.90;;;;;;5040036;28;20398;-60
2022/10/23 11:14:45;;;;;;;6.72;4.78;;;16.80;99.90;;;;;;5033983;28;20057;-61
2022/10/23 11:17:20;;;;;;;6.50;5.47;;;16.90;99.90;;;;;;5039886;28;20544;-61
2022/10/23 11:20:07;;;;;;;5.32;4.93;;;17.00;99.90;;;;;;5035387;28;20037;-61
2022/10/23 11:22:46;;;;;;;5.95;5.28;;;17.00;99.90;;;;;;5033323;28;20037;-60
2022/10/23 11:25:17;;;;;;;5.22;4.72;;;17.00;99.90;;;;;;5040012;28;20029;-61
2022/10/23 11:28:12;;;;;;;5.50;4.70;;;16.80;99.90;;;;;;5033027;28;20041;-61
2022/10/23 11:30:37;;;;;;;5.32;4.85;;;16.70;99.90;;;;;;5033093;28;20052;-60
2022/10/23 11:33:27;;;;;;;5.97;4.93;;;16.60;99.90;;;;;;5037780;28;20026;-62
2022/10/23 11:36:05;;;;;;;5.40;4.43;;;16.60;99.90;;;;;;5037003;28;20030;-61
2022/10/23 11:38:34;;;;;;;5.43;4.93;;;16.60;99.90;;;;;;5041148;28;20108;-61
2022/10/23 11:41:25;;;;;;;7.95;4.43;;;16.60;99.90;;;;;;5043454;28;20098;-61
2022/10/23 11:43:50;;;;;;;4.77;4.37;;;16.80;99.90;;;;;;5032585;28;20132;-61
2022/10/23 11:46:22;;;;;;;6.47;5.05;;;16.70;99.90;;;;;;5040084;28;20509;-61
2022/10/23 11:48:48;;;;;;;5.18;4.28;;;16.70;99.90;;;;;;5041145;28;20033;-61
2022/10/23 11:51:36;;;;;;;6.78;5.05;;;16.70;99.90;;;;;;5037875;28;20523;-60
2022/10/23 11:54:14;;;;;;;8.23;4.90;;;16.80;99.90;;;;;;5038599;28;20029;-61
2022/10/23 11:56:54;;;;;;;4.85;4.45;;;16.90;99.90;;;;;;5039883;28;20036;-60
2022/10/23 11:59:30;;;;;;;4.88;4.38;;;17.00;99.90;;;;;;5043189;28;20021;-60
2022/10/23 12:01:59;;;;;;;5.55;4.30;;;17.00;99.90;;;;;;5040692;28;20029;-61
2022/10/23 12:04:39;;;;;;;8.55;4.20;;;17.10;99.90;;;;;;5036444;28;20505;-61
2022/10/23 12:07:20;;;;;;;5.35;4.88;;;17.10;99.90;;;;;;5037431;28;20025;-61
2022/10/23 12:09:54;;;;;;;6.03;4.60;;;17.20;99.90;;;;;;5038557;28;20037;-61
2022/10/23 12:12:27;;;;;;;4.57;4.18;;;17.20;99.90;;;;;;5041611;28;20025;-62
2022/10/23 12:14:53;;;;;;;7.22;4.28;;;17.30;99.90;;;;;;5040348;28;20037;-61
2022/10/23 12:17:21;;;;;;;9.07;4.95;;;17.50;99.90;;;;;;5038509;28;20013;-61
2022/10/23 12:19:53;;;;;;;5.95;3.53;;;17.60;99.90;;;;;;5040688;28;20036;-61
2022/10/23 12:22:21;;;;;;;5.50;3.28;;;17.70;99.90;;;;;;5037335;28;20540;-62
2022/10/23 12:25:21;;;;;;;4.15;3.40;;;17.80;99.90;;;;;;5037737;28;20033;-61
2022/10/23 12:28:06;;;;;;;4.43;2.97;;;17.80;99.90;;;;;;5024493;28;20128;-61
2022/10/23 12:31:08;;;;;;;3.60;3.30;;;17.80;99.90;;;;;;5039783;28;20045;-61
2022/10/23 12:33:52;;;;;;;5.45;3.53;;;17.80;99.90;;;;;;5039888;28;20022;-61
2022/10/23 12:36:23;;;;;;;3.28;3.00;;;17.80;99.90;;;;;;5037386;28;20041;-61
2022/10/23 12:38:49;;;;;;;3.38;3.08;;;17.80;99.90;;;;;;5038338;28;20432;-60
2022/10/23 12:41:27;;;;;;;2.95;2.70;;;17.70;99.90;;;;;;5043242;28;20115;-61
2022/10/23 12:44:04;;;;;;;3.28;2.35;;;17.50;99.90;;;;;;5038004;28;20033;-60
2022/10/23 12:46:39;;;;;;;4.00;2.25;;;17.40;99.90;;;;;;5038595;28;20444;-61
2022/10/23 12:49:18;;;;;;;5.70;2.35;;;17.30;99.90;;;;;;5038692;28;20037;-60
2022/10/23 12:51:44;;;;;;;2.35;1.98;;;17.40;99.90;;;;;;5039978;28;20499;-61
2022/10/23 12:54:18;;;;;;;2.85;1.90;;;17.40;99.90;;;;;;5037329;28;20516;-61
2022/10/23 12:56:44;;;;;;;4.30;2.40;;;17.40;99.90;;;;;;5037352;28;20034;-60